Houghton on the Hill, United Kingdom
Current Conditions -  °F | °C
As of 11:50 AM on Sunday 23 Nov 2014 (Local Time) from EGNX Reporting Station
Few Clouds Few Clouds  
Wind Chill: 43°   Ceiling: Unl
Heat Index: 46°   Visibility: 5mi
Dew Point: 45°   Wind: 7mph
Humidity: 93%   Direction: 260°W
Pressure: 30.03"   Gusts: NA
Location:  52.63°N, 1°W
Report Text: EGNX 231150Z 26006KT 8000 FEW016 08/07 Q1017
Loading
Personal Weather Stations






























Interactive Weather Map New forecast layout! Learn more

10-Day Weather Forecast

Advertisements
Track Severe Weather on mobile